aviador You're here:

KCKM Decoded Metar

in
Report Time2017-08-19 14:35:00
UTC Time2017-08-19 14:55:55
Flight Rules unknown UNKNOWN
Wind210° at 05 kt
W.Decomp.*RWY 18: 4.3 kt HW 2.5 kt RCW
W.Rank210° ranks 15
Current wind is below 210° avg. (7.6)
VisibilityN/A
Phenomena:N/A
Clouds:N/A
Expected CloudBase > 2,000 ft AGL from Temp-Dew spread
CeilingNone
Temp29°C
Dew Point24°C (74% RH)
Heat Index33.5°C
QNH1016 hPa
Raw Report
KCKM 191435Z AUTO 21005KT 29/24 A3001 RMK A01=

Extra information for KCKM:More info

Social comments